Tropical Cyclones
[Index]
Main Index Home Page Stock Weather Photos Extreme Storms Discussion Storm News and Storm Chasing Reports Tropical Cyclones / Hurricanes / Typhoons Weather Data and Links Wild Fires / Bushfires Weather Observation Techniques Weather Picture Catalogue Tornado Pictures and Reports Stock Video Footage and DVDs for sale
Season 2002-2003 Tropical Cyclone DOVI Track Map
Season 2002-2003 Summaries (Operational Data): [AU] [SIO] [SPAC] [SH]
<<- Previous TC | 2002-2003 Season | Next TC ->>

click for intensity scale information  Lat/long Grid: Show Hide

 Date Labels: Show Hide

Operational Tropical Cyclone Data : JTWC Advisories

Name: DOVI
Number: 0315

05 Feb 2003 06:00 UTC to 12 Feb 2003 23:00 UTC

    date/time    lat    long     hPa   cat  kts
2003-02-05 06   11.0   163.0W    999         30          
2003-02-05 12   12.0   163.2W    999         30          
2003-02-05 18   13.1   162.2W    997         30          
2003-02-05 23   14.0   162.8W    995    1    40          
2003-02-06 00   14.1   162.8W    990    1    40          
2003-02-06 06   14.5   162.6W    990    1    40          
2003-02-06 12   15.0   162.7W    990    1    40          
2003-02-06 18   16.0   163.3W    985    2    50          
2003-02-07 00   16.3   163.8W    970    3    70          
2003-02-07 06   16.4   164.2W    970    3    75          
2003-02-07 12   17.0   164.5W    970    3    80          
2003-02-07 18   17.5   165.5W    925    4   100          
2003-02-08 00   18.0   166.1W    920    5   110          
2003-02-08 06   18.4   166.7W    925    4   100          
2003-02-08 12   18.9   167.4W    920    5   110          
2003-02-08 18   19.4   167.8W    920    5   110          
2003-02-09 00   20.2   168.5W    920    5   110          
2003-02-09 06   20.9   168.9W    925    4   100          
2003-02-09 12   21.5   169.1W    935    4    90          
2003-02-09 18   22.1   169.3W    945    3    85          
2003-02-10 00   23.1   169.0W    960    3    75          
2003-02-10 06   24.0   168.5W    970    3    65          
2003-02-10 12   24.2   168.5W    980    2    55          
2003-02-10 18   24.9   168.2W    985    2    50          
2003-02-10 23   26.0   169.0W    986    2    50          
2003-02-11 05   27.0   170.0W    985    2    50          
2003-02-11 11   27.0   170.0W    986    2    50          
2003-02-11 23   27.0   170.0W    992    1    45          
2003-02-12 05   28.0   170.0W    987    1    45          
2003-02-12 17   28.0   169.0W    990    1    35          
2003-02-12 23   28.0   169.0W    993    1    35          
Winds are 10-min average.

Tropical cyclone tracks developed by Michael Bath using operational warnings and advisories and Google Maps.


[Australian Severe Weather index] [Copyright Notice] [Email Contacts] [Search This Site] [Privacy Policy]
Document: tropical_cyclone_dovi.htm Updated: 2 May 2017